Time;durP1;ratioP1;P1;durP2;ratioP2;P2;SDS_P1;SDS_P2;PMS_P1;PMS_P2;Temp;Humidity;BMP_temperature;BMP_pressure;BME280_temperature;BME280_humidity;BME280_pressure;Samples;Min_cycle;Max_cycle;Signal;HPM_P1;HPM_P2
2021/09/15 00:01:16;;;;;;;9.20;8.30;;;;;24.40;100950.00;;;;5061847;28;20692;-80
2021/09/15 00:03:43;;;;;;;9.27;8.18;;;;;24.40;100945.00;;;;5050000;28;20199;-79
2021/09/15 00:06:10;;;;;;;9.23;8.35;;;;;24.40;100942.00;;;;5048601;28;20215;-80
2021/09/15 00:08:39;;;;;;;9.23;8.15;;;;;24.40;100944.00;;;;5056120;28;20199;-79
2021/09/15 00:11:06;;;;;;;9.07;8.13;;;;;24.40;100942.00;;;;5058788;28;20203;-79
2021/09/15 00:13:34;;;;;;;10.23;8.70;;;;;24.40;100944.00;;;;5052421;28;20217;-79
2021/09/15 00:16:01;;;;;;;12.63;9.80;;;;;24.40;100944.00;;;;5051481;28;20199;-80
2021/09/15 00:18:28;;;;;;;11.75;8.27;;;;;24.40;100945.00;;;;5049479;28;20187;-79
2021/09/15 00:20:55;;;;;;;12.23;8.27;;;;;24.30;100952.00;;;;5048965;28;20208;-79
2021/09/15 00:23:23;;;;;;;11.75;9.13;;;;;24.30;100948.00;;;;5060557;28;20195;-79
2021/09/15 00:25:51;;;;;;;9.50;8.00;;;;;24.30;100947.00;;;;5050162;28;21583;-79
2021/09/15 00:28:18;;;;;;;10.27;8.13;;;;;24.30;100957.00;;;;5049375;28;20199;-79
2021/09/15 00:30:46;;;;;;;10.30;9.23;;;;;24.30;100950.00;;;;5049294;28;20238;-79
2021/09/15 00:33:13;;;;;;;11.25;9.27;;;;;24.30;100942.00;;;;5049303;28;20558;-79
2021/09/15 00:35:41;;;;;;;10.48;9.38;;;;;24.20;100953.00;;;;5059613;28;20203;-79
2021/09/15 00:38:08;;;;;;;11.80;8.73;;;;;24.20;100950.00;;;;5048217;28;20479;-79
2021/09/15 00:40:35;;;;;;;9.88;8.85;;;;;24.20;100954.00;;;;5063709;28;20206;-79
2021/09/15 00:43:03;;;;;;;11.27;8.30;;;;;24.20;100948.00;;;;5064906;28;20669;-79
2021/09/15 00:45:31;;;;;;;9.15;8.23;;;;;24.20;100943.00;;;;5049224;28;20603;-79
2021/09/15 00:47:58;;;;;;;9.45;8.52;;;;;24.10;100945.00;;;;5049002;28;20199;-79
2021/09/15 00:50:25;;;;;;;11.20;7.78;;;;;24.10;100940.00;;;;5048999;28;20202;-79
2021/09/15 00:52:53;;;;;;;9.52;8.60;;;;;24.10;100944.00;;;;5041989;28;20207;-79
2021/09/15 00:55:20;;;;;;;11.05;8.35;;;;;24.10;100940.00;;;;5048687;28;20200;-80
2021/09/15 00:57:47;;;;;;;10.82;8.00;;;;;24.10;100937.00;;;;5054732;28;20195;-79
2021/09/15 01:00:17;;;;;;;9.65;8.07;;;;;24.00;100934.00;;;;5061612;28;20202;-79
2021/09/15 01:02:44;;;;;;;10.32;7.95;;;;;24.00;100928.00;;;;5060682;28;20199;-79
2021/09/15 01:05:11;;;;;;;9.50;8.27;;;;;24.00;100934.00;;;;5051130;28;20223;-80
2021/09/15 01:07:39;;;;;;;9.65;8.45;;;;;24.00;100932.00;;;;5049568;28;20199;-79
2021/09/15 01:10:07;;;;;;;9.07;8.10;;;;;24.00;100934.00;;;;5053665;28;20575;-79
2021/09/15 01:12:35;;;;;;;8.98;7.90;;;;;24.00;100935.00;;;;5049599;28;20192;-80
2021/09/15 01:15:02;;;;;;;8.60;7.70;;;;;23.90;100939.00;;;;5051919;28;20211;-79
2021/09/15 01:17:31;;;;;;;8.45;7.55;;;;;23.90;100939.00;;;;5048506;28;20199;-79
2021/09/15 01:19:58;;;;;;;8.95;7.72;;;;;23.90;100943.00;;;;5055493;28;20680;-80
2021/09/15 01:22:28;;;;;;;8.40;7.60;;;;;23.90;100945.00;;;;5048314;28;20187;-79
2021/09/15 01:24:56;;;;;;;9.10;8.00;;;;;23.80;100951.00;;;;5058893;28;20218;-79
2021/09/15 01:27:23;;;;;;;9.48;8.05;;;;;23.80;100949.00;;;;5063056;28;20199;-79
2021/09/15 01:29:50;;;;;;;8.35;7.50;;;;;23.80;100946.00;;;;5055139;28;20200;-79
2021/09/15 01:32:17;;;;;;;10.95;8.05;;;;;23.80;100946.00;;;;5053971;28;20242;-79
2021/09/15 01:34:47;;;;;;;10.52;7.22;;;;;23.80;100941.00;;;;5049034;28;20191;-79
2021/09/15 01:37:16;;;;;;;7.10;6.40;;;;;23.70;100942.00;;;;5048202;28;20283;-79
2021/09/15 01:39:45;;;;;;;7.88;7.07;;;;;23.70;100942.00;;;;5051181;28;20224;-80
2021/09/15 01:42:12;;;;;;;10.68;7.80;;;;;23.70;100933.00;;;;5055589;28;20212;-79
2021/09/15 01:44:43;;;;;;;8.80;7.90;;;;;23.60;100927.00;;;;5057862;28;20626;-79
2021/09/15 01:47:12;;;;;;;9.15;8.25;;;;;23.60;100922.00;;;;5047870;28;20194;-79
2021/09/15 01:49:41;;;;;;;8.95;7.78;;;;;23.60;100919.00;;;;5063441;28;20209;-79
2021/09/15 01:52:10;;;;;;;8.35;7.20;;;;;23.60;100913.00;;;;5059885;28;20199;-79
2021/09/15 01:54:38;;;;;;;10.98;8.30;;;;;23.60;100902.00;;;;5064556;28;20212;-79
2021/09/15 01:57:07;;;;;;;9.60;8.38;;;;;23.60;100898.00;;;;5057388;28;20211;-79
2021/09/15 01:59:34;;;;;;;9.20;8.30;;;;;23.60;100886.00;;;;5049493;28;20227;-79
2021/09/15 02:02:01;;;;;;;8.27;7.40;;;;;23.50;100886.00;;;;5059083;28;20207;-79
2021/09/15 02:04:29;;;;;;;8.52;7.43;;;;;23.50;100892.00;;;;5065073;28;20210;-80
2021/09/15 02:06:56;;;;;;;7.72;6.97;;;;;23.50;100894.00;;;;5050584;28;20227;-79
2021/09/15 02:09:24;;;;;;;7.60;6.85;;;;;23.50;100900.00;;;;5047469;28;20191;-79
2021/09/15 02:11:51;;;;;;;8.63;7.28;;;;;23.50;100896.00;;;;5055552;28;20254;-79
2021/09/15 02:14:20;;;;;;;11.63;7.88;;;;;23.50;100896.00;;;;5057893;28;20666;-79
2021/09/15 02:16:47;;;;;;;8.38;7.57;;;;;23.50;100887.00;;;;5045998;28;20697;-79
2021/09/15 02:19:15;;;;;;;7.95;7.00;;;;;23.50;100883.00;;;;5050942;28;20200;-79
2021/09/15 02:21:42;;;;;;;8.45;7.60;;;;;23.40;100882.00;;;;5048190;28;20204;-79
2021/09/15 02:24:10;;;;;;;7.13;6.45;;;;;23.40;100878.00;;;;5049728;28;20204;-79
2021/09/15 02:26:37;;;;;;;8.75;6.78;;;;;23.40;100882.00;;;;5058865;28;20223;-80
2021/09/15 02:29:05;;;;;;;10.55;6.55;;;;;23.40;100885.00;;;;5058397;28;20202;-79
2021/09/15 02:31:34;;;;;;;9.60;7.05;;;;;23.30;100890.00;;;;5063278;28;20218;-79
2021/09/15 02:34:01;;;;;;;8.02;7.32;;;;;23.30;100892.00;;;;5056066;28;20211;-79
2021/09/15 02:36:29;;;;;;;8.00;7.20;;;;;23.30;100889.00;;;;5049894;28;20744;-79
2021/09/15 02:38:56;;;;;;;6.82;6.13;;;;;23.30;100884.00;;;;5050202;28;20234;-79
2021/09/15 02:41:23;;;;;;;7.45;6.65;;;;;23.30;100887.00;;;;5056921;28;20195;-79
2021/09/15 02:43:50;;;;;;;8.38;7.25;;;;;23.30;100889.00;;;;5065119;28;20512;-79
2021/09/15 02:46:18;;;;;;;8.60;7.05;;;;;23.30;100895.00;;;;5051121;28;20239;-79
2021/09/15 02:48:47;;;;;;;6.88;6.28;;;;;23.20;100886.00;;;;5050454;28;20203;-79
2021/09/15 02:51:14;;;;;;;7.00;6.30;;;;;23.20;100880.00;;;;5050238;28;20195;-79
2021/09/15 02:53:41;;;;;;;7.72;6.15;;;;;23.20;100883.00;;;;5059200;28;20204;-79
2021/09/15 02:56:09;;;;;;;9.88;6.90;;;;;23.20;100882.00;;;;5056110;28;20217;-79
2021/09/15 02:58:36;;;;;;;6.85;5.93;;;;;23.20;100876.00;;;;5058664;28;20665;-79
2021/09/15 03:01:03;;;;;;;7.00;6.10;;;;;23.20;100878.00;;;;5055894;28;20200;-79
2021/09/15 03:03:31;;;;;;;8.63;6.97;;;;;23.10;100881.00;;;;5051001;28;20318;-79
2021/09/15 03:05:59;;;;;;;7.43;6.57;;;;;23.10;100884.00;;;;5055591;28;20219;-78
2021/09/15 03:08:26;;;;;;;6.78;6.10;;;;;23.10;100886.00;;;;5061037;28;20198;-79
2021/09/15 03:10:54;;;;;;;8.45;6.70;;;;;23.10;100878.00;;;;5053450;28;20204;-79
2021/09/15 03:13:21;;;;;;;7.07;6.35;;;;;23.10;100879.00;;;;5054695;28;20195;-79
2021/09/15 03:15:48;;;;;;;9.15;5.95;;;;;23.10;100877.00;;;;5056074;28;20199;-79
2021/09/15 03:18:15;;;;;;;7.13;6.43;;;;;23.10;100873.00;;;;5062516;28;20199;-79
2021/09/15 03:20:43;;;;;;;8.38;5.68;;;;;23.00;100872.00;;;;5050014;28;20206;-79
2021/09/15 03:23:11;;;;;;;8.50;6.35;;;;;23.00;100866.00;;;;5049914;28;20194;-79
2021/09/15 03:25:38;;;;;;;8.55;5.68;;;;;23.00;100859.00;;;;5054352;28;20226;-79
2021/09/15 03:28:06;;;;;;;7.82;6.53;;;;;23.00;100856.00;;;;5068815;28;20191;-79
2021/09/15 03:30:33;;;;;;;7.15;5.90;;;;;23.00;100856.00;;;;5068364;28;20219;-79
2021/09/15 03:33:00;;;;;;;10.20;6.85;;;;;23.00;100865.00;;;;5066837;28;20207;-79
2021/09/15 03:35:27;;;;;;;7.45;5.55;;;;;23.00;100859.00;;;;5052642;28;20207;-80
2021/09/15 03:37:55;;;;;;;8.20;6.55;;;;;23.00;100859.00;;;;5067050;28;20719;-79
2021/09/15 03:40:23;;;;;;;9.10;5.82;;;;;23.00;100857.00;;;;5059449;28;20192;-79
2021/09/15 03:42:51;;;;;;;7.28;5.93;;;;;23.00;100856.00;;;;5050019;28;20199;-79
2021/09/15 03:45:18;;;;;;;6.95;6.05;;;;;23.00;100856.00;;;;5049068;28;20291;-79
2021/09/15 03:47:46;;;;;;;6.88;6.20;;;;;23.00;100859.00;;;;5049407;28;20214;-79
2021/09/15 03:50:13;;;;;;;9.70;6.60;;;;;23.00;100856.00;;;;5048277;28;20191;-79
2021/09/15 03:52:41;;;;;;;8.05;5.28;;;;;23.00;100856.00;;;;5048648;28;20191;-79
2021/09/15 03:55:09;;;;;;;7.18;5.97;;;;;23.00;100856.00;;;;5051650;28;20204;-79
2021/09/15 03:57:37;;;;;;;8.57;6.53;;;;;23.00;100862.00;;;;5052580;28;20199;-79
2021/09/15 04:00:06;;;;;;;8.23;6.15;;;;;23.00;100856.00;;;;5050718;28;20204;-79
2021/09/15 04:02:33;;;;;;;6.68;6.07;;;;;23.00;100854.00;;;;5056018;28;20207;-80
2021/09/15 04:05:00;;;;;;;6.97;5.85;;;;;23.10;100859.00;;;;5065746;28;20218;-79
2021/09/15 04:07:28;;;;;;;8.35;6.13;;;;;23.10;100859.00;;;;5049216;28;20234;-79
2021/09/15 04:09:55;;;;;;;6.55;5.68;;;;;23.10;100853.00;;;;5057269;28;20191;-79
2021/09/15 04:12:22;;;;;;;9.98;6.35;;;;;23.10;100855.00;;;;5069507;28;20206;-79
2021/09/15 04:14:51;;;;;;;6.22;5.68;;;;;23.10;100853.00;;;;5059493;28;20199;-79
2021/09/15 04:17:18;;;;;;;7.68;5.70;;;;;23.10;100852.00;;;;5048511;28;20192;-79
2021/09/15 04:19:45;;;;;;;6.53;5.10;;;;;23.10;100854.00;;;;5046596;28;20196;-79
2021/09/15 04:22:17;;;;;;;7.28;6.00;;;;;23.10;100860.00;;;;5053632;28;20372;-79
2021/09/15 04:33:00;;;;;;;7.80;5.82;;;;;23.10;100850.00;;;;5048924;28;20214;-79
2021/09/15 04:35:28;;;;;;;7.10;6.43;;;;;23.10;100853.00;;;;5053312;28;20202;-79
2021/09/15 04:37:55;;;;;;;6.93;6.18;;;;;23.20;100859.00;;;;5048543;28;20227;-79
2021/09/15 04:40:23;;;;;;;7.68;6.47;;;;;23.20;100859.00;;;;5050745;28;20250;-79
2021/09/15 04:42:50;;;;;;;8.75;6.53;;;;;23.20;100859.00;;;;5048557;28;20812;-79
2021/09/15 04:45:18;;;;;;;6.35;5.72;;;;;23.20;100855.00;;;;5050537;28;20207;-78
2021/09/15 04:47:46;;;;;;;7.35;5.68;;;;;23.20;100849.00;;;;5048079;28;20231;-79
2021/09/15 04:50:13;;;;;;;6.65;5.32;;;;;23.20;100862.00;;;;5052335;28;20210;-78
2021/09/15 04:52:40;;;;;;;6.43;5.80;;;;;23.30;100862.00;;;;5054070;28;20198;-78
2021/09/15 04:55:08;;;;;;;5.30;4.80;;;;;23.30;100858.00;;;;5052112;28;20187;-79
2021/09/15 04:57:36;;;;;;;6.10;5.50;;;;;23.30;100869.00;;;;5045994;28;20585;-79
2021/09/15 05:00:04;;;;;;;6.07;5.43;;;;;23.30;100861.00;;;;5046528;28;20203;-79
2021/09/15 05:02:32;;;;;;;6.28;5.68;;;;;23.30;100861.00;;;;5051734;28;20198;-79
2021/09/15 05:05:00;;;;;;;7.00;6.10;;;;;23.30;100860.00;;;;5055656;28;20203;-79
2021/09/15 05:07:27;;;;;;;7.60;6.00;;;;;23.30;100866.00;;;;5054788;28;20231;-79
2021/09/15 05:09:54;;;;;;;7.57;6.68;;;;;23.30;100864.00;;;;5053695;28;20199;-79
2021/09/15 05:12:21;;;;;;;8.18;6.28;;;;;23.40;100858.00;;;;5047895;28;20211;-78
2021/09/15 05:14:49;;;;;;;10.02;6.47;;;;;23.40;100858.00;;;;5052738;28;20281;-79
2021/09/15 05:17:16;;;;;;;7.00;6.28;;;;;23.40;100855.00;;;;5052826;28;20209;-79
2021/09/15 05:19:44;;;;;;;6.38;5.72;;;;;23.40;100854.00;;;;5052922;28;20200;-78
2021/09/15 05:22:12;;;;;;;7.30;5.82;;;;;23.40;100853.00;;;;5051855;28;20204;-79
2021/09/15 05:24:39;;;;;;;7.90;7.13;;;;;23.40;100855.00;;;;5054370;28;20195;-79
2021/09/15 05:27:06;;;;;;;7.20;6.50;;;;;23.40;100861.00;;;;5049574;28;20219;-79
2021/09/15 05:29:34;;;;;;;6.78;6.18;;;;;23.40;100863.00;;;;5047819;28;20210;-79
2021/09/15 05:32:01;;;;;;;8.32;6.28;;;;;23.40;100857.00;;;;5064524;28;20225;-79
2021/09/15 05:34:28;;;;;;;6.70;5.95;;;;;23.50;100860.00;;;;5058942;28;20199;-78
2021/09/15 05:36:57;;;;;;;6.22;5.63;;;;;23.50;100861.00;;;;5049356;28;20745;-77
2021/09/15 05:39:24;;;;;;;6.82;5.68;;;;;23.50;100860.00;;;;5049330;28;20223;-77
2021/09/15 05:41:51;;;;;;;6.95;6.25;;;;;23.50;100855.00;;;;5065689;28;20426;-79
2021/09/15 05:44:18;;;;;;;6.50;5.90;;;;;23.50;100852.00;;;;5063415;28;20199;-78
2021/09/15 05:46:45;;;;;;;7.55;6.32;;;;;23.50;100851.00;;;;5052920;28;20220;-78
2021/09/15 05:49:13;;;;;;;7.32;6.18;;;;;23.60;100844.00;;;;5052576;28;20207;-80
2021/09/15 05:51:40;;;;;;;6.57;5.90;;;;;23.60;100852.00;;;;5050632;28;20589;-78
2021/09/15 05:54:09;;;;;;;7.55;6.22;;;;;23.60;100856.00;;;;5057813;28;20207;-78
2021/09/15 05:56:38;;;;;;;7.45;6.70;;;;;23.60;100854.00;;;;5064261;28;20204;-79
2021/09/15 05:59:05;;;;;;;7.15;6.45;;;;;23.60;100855.00;;;;5063810;28;20672;-78
2021/09/15 06:01:32;;;;;;;7.38;6.32;;;;;23.60;100860.00;;;;5058447;28;20206;-79
2021/09/15 06:04:00;;;;;;;6.60;5.53;;;;;23.60;100873.00;;;;5071674;28;20218;-79
2021/09/15 06:06:27;;;;;;;7.20;6.50;;;;;23.70;100878.00;;;;5071328;28;20595;-78
2021/09/15 06:08:54;;;;;;;7.05;6.35;;;;;23.70;100875.00;;;;5060173;28;20661;-79
2021/09/15 06:11:23;;;;;;;6.47;5.70;;;;;23.70;100885.00;;;;5058221;28;20192;-78
2021/09/15 06:13:50;;;;;;;8.38;6.25;;;;;23.80;100885.00;;;;5070712;28;20676;-78
2021/09/15 06:16:18;;;;;;;6.15;5.55;;;;;23.80;100886.00;;;;5071060;28;20363;-78
2021/09/15 06:18:45;;;;;;;6.25;5.63;;;;;23.80;100887.00;;;;5059900;28;20191;-78
2021/09/15 06:21:12;;;;;;;6.93;5.97;;;;;23.80;100894.00;;;;5068557;28;20205;-78
2021/09/15 06:23:39;;;;;;;6.60;5.75;;;;;23.80;100890.00;;;;5051622;28;20196;-78
2021/09/15 06:26:07;;;;;;;7.07;6.20;;;;;23.80;100887.00;;;;5053526;28;20203;-78
2021/09/15 06:28:35;;;;;;;10.70;6.28;;;;;23.80;100886.00;;;;5050525;28;20250;-78
2021/09/15 06:31:03;;;;;;;6.93;6.22;;;;;23.90;100890.00;;;;5050841;28;20226;-78
2021/09/15 06:33:31;;;;;;;9.40;6.25;;;;;23.90;100881.00;;;;5051178;28;20511;-78
2021/09/15 06:35:58;;;;;;;9.13;6.43;;;;;23.90;100871.00;;;;5051481;28;20249;-78
2021/09/15 06:38:26;;;;;;;8.18;6.55;;;;;23.90;100879.00;;;;5050956;28;20223;-78
2021/09/15 06:40:53;;;;;;;10.02;6.50;;;;;23.90;100879.00;;;;5050607;28;20203;-78
2021/09/15 06:43:20;;;;;;;7.65;6.85;;;;;24.00;100877.00;;;;5063589;28;20199;-78
2021/09/15 06:45:49;;;;;;;7.20;6.47;;;;;24.00;100881.00;;;;5051022;28;20222;-78
2021/09/15 06:48:17;;;;;;;8.30;6.32;;;;;24.00;100881.00;;;;5050709;28;20223;-78
2021/09/15 06:50:44;;;;;;;8.57;6.90;;;;;24.00;100885.00;;;;5050204;28;20724;-78
2021/09/15 06:53:12;;;;;;;8.35;6.97;;;;;24.00;100891.00;;;;5050875;28;20199;-78
2021/09/15 06:55:39;;;;;;;7.65;6.78;;;;;24.10;100889.00;;;;5050363;28;20192;-78
2021/09/15 06:58:06;;;;;;;10.00;7.13;;;;;24.10;100886.00;;;;5051371;28;20208;-78
2021/09/15 07:00:34;;;;;;;8.30;6.65;;;;;24.10;100886.00;;;;5053451;28;20217;-78
2021/09/15 07:03:03;;;;;;;7.45;6.65;;;;;24.20;100888.00;;;;5058062;28;20212;-78
2021/09/15 07:05:31;;;;;;;10.27;6.22;;;;;24.20;100889.00;;;;5051096;28;20219;-78
2021/09/15 07:07:58;;;;;;;7.40;6.18;;;;;24.20;100892.00;;;;5050083;28;20720;-78
2021/09/15 07:10:25;;;;;;;8.55;7.00;;;;;24.30;100890.00;;;;5049783;28;20274;-78
2021/09/15 07:12:52;;;;;;;8.80;6.28;;;;;24.30;100894.00;;;;5050324;28;20196;-78
2021/09/15 07:15:20;;;;;;;11.15;7.07;;;;;24.30;100902.00;;;;5050115;28;20203;-78
2021/09/15 07:17:47;;;;;;;12.45;7.63;;;;;24.40;100907.00;;;;5050682;28;20199;-78
2021/09/15 07:20:16;;;;;;;8.02;7.22;;;;;24.40;100901.00;;;;5057979;28;20203;-78
2021/09/15 07:22:43;;;;;;;8.00;6.97;;;;;24.40;100903.00;;;;5054482;28;20210;-79
2021/09/15 07:25:11;;;;;;;7.28;6.43;;;;;24.40;100899.00;;;;5050279;28;20210;-80
2021/09/15 07:27:39;;;;;;;8.68;6.63;;;;;24.50;100893.00;;;;5050438;28;20235;-79
2021/09/15 07:30:07;;;;;;;7.57;6.68;;;;;24.50;100898.00;;;;5053353;28;20188;-79
2021/09/15 07:32:34;;;;;;;9.57;7.07;;;;;24.50;100897.00;;;;5056808;28;20204;-81
2021/09/15 07:35:02;;;;;;;7.03;6.38;;;;;24.60;100895.00;;;;5055908;28;20611;-78
2021/09/15 07:37:30;;;;;;;7.78;6.63;;;;;24.60;100894.00;;;;5062308;28;20203;-78
2021/09/15 07:39:58;;;;;;;7.25;6.47;;;;;24.60;100893.00;;;;5057315;28;20200;-78
2021/09/15 07:42:26;;;;;;;9.45;7.32;;;;;24.60;100901.00;;;;5053597;28;20581;-78
2021/09/15 07:44:53;;;;;;;9.40;7.93;;;;;24.60;100903.00;;;;5053026;28;20584;-77
2021/09/15 07:47:20;;;;;;;10.15;7.38;;;;;24.70;100914.00;;;;5054171;28;20215;-78
2021/09/15 07:49:49;;;;;;;7.65;6.95;;;;;24.70;100910.00;;;;5055143;28;20199;-77
2021/09/15 07:52:17;;;;;;;8.93;7.20;;;;;24.70;100915.00;;;;5058163;28;20494;-78
2021/09/15 07:54:45;;;;;;;11.98;8.88;;;;;24.70;100918.00;;;;5053472;28;20200;-77
2021/09/15 07:57:12;;;;;;;12.85;8.93;;;;;24.80;100912.00;;;;5058826;28;20528;-78
2021/09/15 07:59:40;;;;;;;13.45;10.32;;;;;24.80;100908.00;;;;5051361;28;20630;-78
2021/09/15 08:02:07;;;;;;;10.15;8.30;;;;;24.80;100910.00;;;;5055436;28;20650;-78
2021/09/15 08:04:34;;;;;;;11.57;9.18;;;;;24.80;100914.00;;;;5058066;28;20245;-78
2021/09/15 08:07:01;;;;;;;18.42;10.68;;;;;24.90;100911.00;;;;5057682;28;20218;-78
2021/09/15 08:09:29;;;;;;;12.20;10.43;;;;;24.90;100906.00;;;;5054228;28;20210;-79
2021/09/15 08:11:57;;;;;;;14.95;10.43;;;;;24.90;100899.00;;;;5054419;28;20222;-79
2021/09/15 08:14:26;;;;;;;15.07;11.88;;;;;25.00;100898.00;;;;5054599;28;20196;-79
2021/09/15 08:16:54;;;;;;;16.48;12.30;;;;;25.00;100893.00;;;;5064688;28;20286;-79
2021/09/15 08:19:23;;;;;;;17.38;12.10;;;;;25.10;100892.00;;;;5060502;28;20625;-79
2021/09/15 08:21:50;;;;;;;15.82;12.05;;;;;25.10;100889.00;;;;5056087;28;20261;-79
2021/09/15 08:24:17;;;;;;;16.48;12.10;;;;;25.10;100885.00;;;;5059520;28;20188;-79
2021/09/15 08:26:44;;;;;;;16.25;12.75;;;;;25.10;100887.00;;;;5058072;28;20211;-77
2021/09/15 08:29:13;;;;;;;17.08;13.00;;;;;25.10;100895.00;;;;5056787;28;20203;-77
2021/09/15 08:31:40;;;;;;;19.58;13.70;;;;;25.20;100884.00;;;;5058320;28;21023;-77
2021/09/15 08:34:08;;;;;;;20.60;13.70;;;;;25.20;100887.00;;;;5062863;28;20198;-78
2021/09/15 08:36:35;;;;;;;17.15;13.43;;;;;25.20;100876.00;;;;5060385;28;20191;-77
2021/09/15 08:39:03;;;;;;;19.13;14.65;;;;;25.20;100883.00;;;;5055720;28;20234;-77
2021/09/15 08:41:31;;;;;;;17.65;13.85;;;;;25.20;100883.00;;;;5047190;28;20199;-77
2021/09/15 08:43:58;;;;;;;19.52;13.55;;;;;25.20;100890.00;;;;5053496;28;20199;-78
2021/09/15 08:46:29;;;;;;;19.63;14.93;;;;;25.20;100892.00;;;;5053768;28;20199;-78
2021/09/15 08:48:59;;;;;;;20.02;14.27;;;;;25.20;100886.00;;;;5054557;28;20227;-79
2021/09/15 08:51:27;;;;;;;23.60;15.52;;;;;25.20;100893.00;;;;5048724;28;20231;-77
2021/09/15 08:53:55;;;;;;;20.85;14.05;;;;;25.10;100888.00;;;;5059848;28;20210;-79
2021/09/15 08:56:23;;;;;;;20.58;14.30;;;;;25.10;100901.00;;;;5052353;28;20597;-78
2021/09/15 08:58:51;;;;;;;22.67;14.45;;;;;25.20;100912.00;;;;5052690;28;20202;-77
2021/09/15 09:01:20;;;;;;;18.65;13.05;;;;;25.20;100913.00;;;;5062257;28;20210;-79
2021/09/15 09:03:52;;;;;;;17.63;12.70;;;;;25.10;100910.00;;;;5056498;28;20204;-79
2021/09/15 09:06:21;;;;;;;18.38;13.30;;;;;25.20;100917.00;;;;5059433;28;20553;-78
2021/09/15 09:08:52;;;;;;;17.98;12.68;;;;;25.20;100927.00;;;;5052311;28;20308;-78
2021/09/15 09:11:21;;;;;;;16.80;12.10;;;;;25.20;100925.00;;;;5052984;28;20195;-77
2021/09/15 09:13:50;;;;;;;19.77;12.57;;;;;25.20;100925.00;;;;5060108;28;20226;-79
2021/09/15 09:16:18;;;;;;;17.38;12.35;;;;;25.20;100925.00;;;;5050682;28;20202;-78
2021/09/15 09:19:00;;;;;;;15.85;11.85;;;;;25.20;100925.00;;;;5055097;28;20253;-78
2021/09/15 09:21:29;;;;;;;14.88;11.35;;;;;25.30;100918.00;;;;5060565;28;20203;-78
2021/09/15 09:23:58;;;;;;;16.38;12.02;;;;;25.30;100915.00;;;;5056667;28;20191;-78
2021/09/15 09:26:44;;;;;;;16.85;10.98;;;;;25.30;100913.00;;;;5050686;28;20227;-78
2021/09/15 09:29:13;;;;;;;14.23;11.02;;;;;25.40;100917.00;;;;5048282;28;20738;-78
2021/09/15 09:31:40;;;;;;;15.05;10.57;;;;;25.50;100916.00;;;;5051333;28;20704;-77
2021/09/15 09:34:11;;;;;;;13.05;9.95;;;;;25.50;100917.00;;;;5069426;28;20198;-78
2021/09/15 09:36:38;;;;;;;11.57;9.77;;;;;25.50;100915.00;;;;5061197;28;20204;-78
2021/09/15 09:39:11;;;;;;;13.27;11.23;;;;;25.60;100920.00;;;;5054577;28;20238;-78
2021/09/15 09:41:38;;;;;;;13.00;10.50;;;;;25.60;100927.00;;;;5056545;28;20245;-79
2021/09/15 09:44:06;;;;;;;16.27;11.18;;;;;25.70;100922.00;;;;5055459;28;20207;-79
2021/09/15 09:46:41;;;;;;;13.25;10.23;;;;;25.70;100922.00;;;;5060851;28;20678;-78
2021/09/15 09:49:11;;;;;;;14.63;10.30;;;;;25.60;100920.00;;;;5049718;28;20588;-78
2021/09/15 09:51:41;;;;;;;15.98;10.45;;;;;25.60;100921.00;;;;5053071;28;20195;-78
2021/09/15 09:54:14;;;;;;;11.98;10.02;;;;;25.60;100923.00;;;;5055479;28;20195;-78
2021/09/15 09:56:44;;;;;;;12.13;9.70;;;;;25.60;100923.00;;;;5056010;28;20756;-78
2021/09/15 09:59:12;;;;;;;20.65;10.38;;;;;25.60;100927.00;;;;5051956;28;20223;-78
2021/09/15 10:01:43;;;;;;;16.38;10.75;;;;;25.60;100923.00;;;;5059088;28;20224;-78
2021/09/15 10:04:12;;;;;;;14.55;11.07;;;;;25.60;100923.00;;;;5057300;28;20222;-78
2021/09/15 10:06:40;;;;;;;14.60;11.32;;;;;25.60;100925.00;;;;5054913;28;20203;-78
2021/09/15 10:09:08;;;;;;;14.25;10.95;;;;;25.60;100926.00;;;;5064463;28;20223;-79
2021/09/15 10:11:37;;;;;;;12.40;9.68;;;;;25.60;100921.00;;;;5061781;28;20574;-79
2021/09/15 10:14:07;;;;;;;13.77;11.13;;;;;25.50;100930.00;;;;5056135;28;20559;-79
2021/09/15 10:16:41;;;;;;;11.98;9.57;;;;;25.50;100936.00;;;;5052662;28;20192;-79
2021/09/15 10:19:11;;;;;;;13.05;10.50;;;;;25.50;100933.00;;;;5064812;28;20191;-78
2021/09/15 10:21:38;;;;;;;12.60;10.02;;;;;25.50;100932.00;;;;5059228;28;20192;-78
2021/09/15 10:24:05;;;;;;;12.73;9.45;;;;;25.50;100933.00;;;;5070642;28;20210;-78
2021/09/15 10:26:38;;;;;;;12.88;9.55;;;;;25.40;100937.00;;;;5066745;28;20218;-77
2021/09/15 10:29:28;;;;;;;12.63;9.93;;;;;25.30;100935.00;;;;5070490;28;20237;-77
2021/09/15 10:32:05;;;;;;;12.95;9.75;;;;;25.30;100932.00;;;;5062730;28;20586;-78
2021/09/15 10:34:57;;;;;;;11.60;9.20;;;;;25.30;100932.00;;;;5059149;28;21377;-77
2021/09/15 10:37:55;;;;;;;10.98;9.38;;;;;25.30;100938.00;;;;5046131;28;20206;-80
2021/09/15 10:40:37;;;;;;;11.77;9.10;;;;;25.30;100945.00;;;;5069822;28;20667;-81
2021/09/15 10:43:25;;;;;;;9.65;8.57;;;;;25.40;100946.00;;;;5062729;28;20915;-80
2021/09/15 10:46:21;;;;;;;9.80;8.55;;;;;25.30;100948.00;;;;5057407;28;20203;-80
2021/09/15 10:49:18;;;;;;;9.10;7.90;;;;;25.30;100951.00;;;;5060603;28;20220;-79
2021/09/15 10:51:47;;;;;;;10.00;7.82;;;;;25.50;100945.00;;;;5065740;28;20231;-80
2021/09/15 10:54:42;;;;;;;9.32;8.38;;;;;25.30;100949.00;;;;5057308;28;20207;-81
2021/09/15 10:57:13;;;;;;;9.32;6.78;;;;;25.50;100937.00;;;;5052251;28;20622;-81
2021/09/15 10:59:51;;;;;;;8.02;6.93;;;;;25.40;100949.00;;;;5063711;28;20199;-79
2021/09/15 11:02:26;;;;;;;7.93;7.13;;;;;25.50;100942.00;;;;5068795;28;20206;-79
2021/09/15 11:04:54;;;;;;;10.60;7.70;;;;;25.60;100942.00;;;;5060670;28;20205;-80
2021/09/15 11:07:58;;;;;;;6.72;6.05;;;;;25.50;100947.00;;;;5061353;28;20210;-81
2021/09/15 11:10:40;;;;;;;6.75;6.13;;;;;25.50;100952.00;;;;5067202;28;20209;-80
2021/09/15 11:13:08;;;;;;;8.43;7.10;;;;;25.60;100954.00;;;;5057273;28;20197;-79
2021/09/15 11:15:37;;;;;;;7.45;6.47;;;;;25.60;100953.00;;;;5063830;28;20211;-80
2021/09/15 11:18:05;;;;;;;9.45;7.57;;;;;25.60;100951.00;;;;5069722;28;20199;-80
2021/09/15 11:20:35;;;;;;;7.68;6.75;;;;;25.60;100956.00;;;;5069974;28;20214;-80
2021/09/15 11:23:08;;;;;;;7.53;6.50;;;;;25.50;100949.00;;;;5052053;28;20271;-80
2021/09/15 11:25:36;;;;;;;7.53;6.55;;;;;25.50;100960.00;;;;5060066;28;20195;-80
2021/09/15 11:28:09;;;;;;;6.57;5.97;;;;;25.50;100963.00;;;;5053338;28;20232;-80
2021/09/15 11:30:38;;;;;;;6.32;5.72;;;;;25.50;100963.00;;;;5058778;28;20218;-79
2021/09/15 11:33:05;;;;;;;6.60;5.43;;;;;25.50;100961.00;;;;5062346;28;20697;-80
2021/09/15 11:35:38;;;;;;;6.78;6.15;;;;;25.50;100963.00;;;;5051615;28;20200;-79
2021/09/15 11:38:08;;;;;;;7.35;5.95;;;;;25.50;100959.00;;;;5060589;28;20747;-80
2021/09/15 11:40:36;;;;;;;6.53;5.70;;;;;25.50;100966.00;;;;5052598;28;20574;-79
2021/09/15 11:43:06;;;;;;;9.43;5.97;;;;;25.50;100959.00;;;;5050124;28;20191;-80
2021/09/15 11:45:35;;;;;;;5.63;5.13;;;;;25.50;100964.00;;;;5048571;28;20207;-79
2021/09/15 11:48:03;;;;;;;5.53;5.03;;;;;25.50;100953.00;;;;5052537;28;20204;-79
2021/09/15 11:50:32;;;;;;;5.72;5.22;;;;;25.50;100957.00;;;;5049442;28;20207;-80
2021/09/15 11:53:04;;;;;;;6.07;4.45;;;;;25.50;100965.00;;;;5052108;28;20191;-80
2021/09/15 11:55:36;;;;;;;5.50;4.95;;;;;25.50;100965.00;;;;5065961;28;20195;-80
2021/09/15 11:58:04;;;;;;;5.10;4.63;;;;;25.50;100963.00;;;;5060005;28;20195;-79
2021/09/15 12:00:32;;;;;;;4.70;4.22;;;;;25.50;100963.00;;;;5051195;28;20214;-78
2021/09/15 12:03:02;;;;;;;5.40;4.18;;;;;25.60;100961.00;;;;5054156;28;20204;-78
2021/09/15 12:05:29;;;;;;;5.38;4.20;;;;;25.60;100963.00;;;;5059331;28;20715;-79
2021/09/15 12:07:57;;;;;;;4.45;4.05;;;;;25.60;100960.00;;;;5062509;28;20694;-79
2021/09/15 12:10:26;;;;;;;3.90;3.60;;;;;25.60;100971.00;;;;5049070;28;20206;-79
2021/09/15 12:12:58;;;;;;;4.22;3.83;;;;;25.60;100961.00;;;;5052477;28;20206;-81
2021/09/15 12:15:26;;;;;;;3.88;3.58;;;;;25.60;100964.00;;;;5060443;28;20210;-81
2021/09/15 12:17:54;;;;;;;4.47;3.63;;;;;25.60;100963.00;;;;5067586;28;20199;-81
2021/09/15 12:20:41;;;;;;;3.45;3.05;;;;;25.50;100963.00;;;;5055238;28;20615;-80